sensor_id;sensor_type;location;lat;lon;timestamp;pressure;altitude;pressure_sealevel;temperature;humidity
77112;BME280;66064;50.226;14.344;2024-03-06T00:00:20;99587.72;;;3.46;100.00
77112;BME280;66064;50.226;14.344;2024-03-06T00:03:06;99592.56;;;3.36;100.00
77112;BME280;66064;50.226;14.344;2024-03-06T00:05:32;99587.53;;;3.20;100.00
77112;BME280;66064;50.226;14.344;2024-03-06T00:07:58;99602.28;;;3.16;100.00
77112;BME280;66064;50.226;14.344;2024-03-06T00:10:26;99605.34;;;3.04;100.00
77112;BME280;66064;50.226;14.344;2024-03-06T00:12:52;99600.28;;;2.88;100.00
77112;BME280;66064;50.226;14.344;2024-03-06T00:15:18;99605.69;;;2.91;100.00
77112;BME280;66064;50.226;14.344;2024-03-06T00:17:44;99601.81;;;2.83;100.00
77112;BME280;66064;50.226;14.344;2024-03-06T00:20:11;99597.47;;;2.84;100.00
77112;BME280;66064;50.226;14.344;2024-03-06T00:22:36;99604.47;;;2.83;100.00
77112;BME280;66064;50.226;14.344;2024-03-06T00:25:04;99614.41;;;2.90;100.00
77112;BME280;66064;50.226;14.344;2024-03-06T00:27:30;99615.78;;;2.82;100.00
77112;BME280;66064;50.226;14.344;2024-03-06T00:29:56;99598.94;;;2.77;100.00
77112;BME280;66064;50.226;14.344;2024-03-06T00:32:22;99616.13;;;2.90;100.00
77112;BME280;66064;50.226;14.344;2024-03-06T00:34:49;99615.56;;;2.76;100.00
77112;BME280;66064;50.226;14.344;2024-03-06T00:37:15;99624.63;;;2.63;100.00
77112;BME280;66064;50.226;14.344;2024-03-06T00:39:41;99632.38;;;2.60;100.00
77112;BME280;66064;50.226;14.344;2024-03-06T00:42:07;99632.34;;;2.59;100.00
77112;BME280;66064;50.226;14.344;2024-03-06T00:44:35;99631.03;;;2.49;100.00
77112;BME280;66064;50.226;14.344;2024-03-06T00:47:01;99632.44;;;2.41;100.00
77112;BME280;66064;50.226;14.344;2024-03-06T00:49:27;99635.91;;;2.40;100.00
77112;BME280;66064;50.226;14.344;2024-03-06T00:51:54;99632.16;;;2.35;100.00
77112;BME280;66064;50.226;14.344;2024-03-06T00:54:20;99632.03;;;2.32;100.00
77112;BME280;66064;50.226;14.344;2024-03-06T00:56:46;99628.31;;;2.27;100.00
77112;BME280;66064;50.226;14.344;2024-03-06T00:59:12;99626.09;;;2.17;100.00
77112;BME280;66064;50.226;14.344;2024-03-06T01:01:38;99632.78;;;2.29;100.00
77112;BME280;66064;50.226;14.344;2024-03-06T01:04:05;99616.03;;;2.26;100.00
77112;BME280;66064;50.226;14.344;2024-03-06T01:06:37;99634.94;;;2.38;100.00
77112;BME280;66064;50.226;14.344;2024-03-06T01:09:04;99634.25;;;2.42;100.00
77112;BME280;66064;50.226;14.344;2024-03-06T01:11:29;99629.00;;;2.42;100.00
77112;BME280;66064;50.226;14.344;2024-03-06T01:13:55;99622.09;;;2.25;100.00
77112;BME280;66064;50.226;14.344;2024-03-06T01:16:21;99628.44;;;2.30;100.00
77112;BME280;66064;50.226;14.344;2024-03-06T01:18:48;99623.75;;;2.42;100.00
77112;BME280;66064;50.226;14.344;2024-03-06T01:21:14;99628.41;;;2.49;100.00
77112;BME280;66064;50.226;14.344;2024-03-06T01:23:41;99632.69;;;2.47;100.00
77112;BME280;66064;50.226;14.344;2024-03-06T01:26:07;99631.72;;;2.45;100.00
77112;BME280;66064;50.226;14.344;2024-03-06T01:28:33;99629.81;;;2.41;100.00
77112;BME280;66064;50.226;14.344;2024-03-06T01:30:59;99621.66;;;2.35;100.00
77112;BME280;66064;50.226;14.344;2024-03-06T01:33:25;99628.72;;;2.36;100.00
77112;BME280;66064;50.226;14.344;2024-03-06T01:35:52;99639.34;;;2.39;100.00
77112;BME280;66064;50.226;14.344;2024-03-06T01:38:20;99638.38;;;2.37;100.00
77112;BME280;66064;50.226;14.344;2024-03-06T01:40:46;99637.34;;;2.33;100.00
77112;BME280;66064;50.226;14.344;2024-03-06T01:43:38;99640.72;;;2.31;100.00
77112;BME280;66064;50.226;14.344;2024-03-06T01:46:05;99632.19;;;2.16;100.00
77112;BME280;66064;50.226;14.344;2024-03-06T01:48:32;99644.09;;;2.07;100.00
77112;BME280;66064;50.226;14.344;2024-03-06T01:51:01;99645.53;;;2.01;100.00
77112;BME280;66064;50.226;14.344;2024-03-06T01:53:29;99649.81;;;1.99;100.00
77112;BME280;66064;50.226;14.344;2024-03-06T01:55:57;99653.19;;;1.96;100.00
77112;BME280;66064;50.226;14.344;2024-03-06T01:58:24;99649.72;;;1.97;100.00
77112;BME280;66064;50.226;14.344;2024-03-06T02:00:50;99649.72;;;1.97;100.00
77112;BME280;66064;50.226;14.344;2024-03-06T02:03:19;99647.81;;;1.93;100.00
77112;BME280;66064;50.226;14.344;2024-03-06T02:05:50;99651.88;;;1.87;100.00
77112;BME280;66064;50.226;14.344;2024-03-06T02:08:17;99654.13;;;1.79;100.00
77112;BME280;66064;50.226;14.344;2024-03-06T02:10:46;99646.81;;;1.72;100.00
77112;BME280;66064;50.226;14.344;2024-03-06T02:13:13;99650.19;;;1.69;100.00
77112;BME280;66064;50.226;14.344;2024-03-06T02:15:39;99638.59;;;1.64;100.00
77112;BME280;66064;50.226;14.344;2024-03-06T02:18:06;99644.34;;;1.75;100.00
77112;BME280;66064;50.226;14.344;2024-03-06T02:20:32;99636.31;;;1.72;100.00
77112;BME280;66064;50.226;14.344;2024-03-06T02:23:00;99642.56;;;1.74;100.00
77112;BME280;66064;50.226;14.344;2024-03-06T02:25:25;99650.97;;;1.86;100.00
77112;BME280;66064;50.226;14.344;2024-03-06T02:27:52;99663.28;;;1.87;100.00
77112;BME280;66064;50.226;14.344;2024-03-06T02:30:21;99653.97;;;1.94;100.00
77112;BME280;66064;50.226;14.344;2024-03-06T02:32:47;99657.69;;;1.99;100.00
77112;BME280;66064;50.226;14.344;2024-03-06T02:35:13;99665.75;;;2.03;100.00
77112;BME280;66064;50.226;14.344;2024-03-06T02:37:43;99658.44;;;2.16;100.00
77112;BME280;66064;50.226;14.344;2024-03-06T02:40:10;99661.59;;;2.28;100.00
77112;BME280;66064;50.226;14.344;2024-03-06T02:42:38;99669.22;;;2.41;100.00
77112;BME280;66064;50.226;14.344;2024-03-06T02:45:06;99671.25;;;2.48;100.00
77112;BME280;66064;50.226;14.344;2024-03-06T02:47:33;99668.09;;;2.55;100.00
77112;BME280;66064;50.226;14.344;2024-03-06T02:49:59;99666.44;;;2.57;100.00
77112;BME280;66064;50.226;14.344;2024-03-06T02:52:26;99686.16;;;2.68;100.00
77112;BME280;66064;50.226;14.344;2024-03-06T02:54:52;99674.13;;;2.73;100.00
77112;BME280;66064;50.226;14.344;2024-03-06T02:57:18;99672.66;;;2.80;100.00
77112;BME280;66064;50.226;14.344;2024-03-06T02:59:43;99650.56;;;2.75;100.00
77112;BME280;66064;50.226;14.344;2024-03-06T03:02:10;99676.59;;;2.90;100.00
77112;BME280;66064;50.226;14.344;2024-03-06T03:04:37;99676.94;;;2.99;100.00
77112;BME280;66064;50.226;14.344;2024-03-06T03:07:03;99678.69;;;2.98;100.00
77112;BME280;66064;50.226;14.344;2024-03-06T03:09:31;99671.56;;;2.96;100.00
77112;BME280;66064;50.226;14.344;2024-03-06T03:11:57;99689.63;;;3.09;100.00
77112;BME280;66064;50.226;14.344;2024-03-06T03:14:25;99688.09;;;3.14;100.00
77112;BME280;66064;50.226;14.344;2024-03-06T03:16:52;99682.63;;;3.08;100.00
77112;BME280;66064;50.226;14.344;2024-03-06T03:19:19;99686.44;;;3.16;100.00
77112;BME280;66064;50.226;14.344;2024-03-06T03:21:46;99676.47;;;3.07;100.00
77112;BME280;66064;50.226;14.344;2024-03-06T03:24:13;99670.53;;;3.13;100.00
77112;BME280;66064;50.226;14.344;2024-03-06T03:26:39;99694.75;;;3.27;100.00
77112;BME280;66064;50.226;14.344;2024-03-06T03:29:07;99691.91;;;3.21;100.00
77112;BME280;66064;50.226;14.344;2024-03-06T03:31:34;99695.66;;;3.27;100.00
77112;BME280;66064;50.226;14.344;2024-03-06T03:34:01;99680.72;;;3.26;100.00
77112;BME280;66064;50.226;14.344;2024-03-06T03:36:28;99686.09;;;3.29;100.00
77112;BME280;66064;50.226;14.344;2024-03-06T03:38:54;99686.94;;;3.28;100.00
77112;BME280;66064;50.226;14.344;2024-03-06T03:41:21;99683.47;;;3.29;100.00
77112;BME280;66064;50.226;14.344;2024-03-06T03:43:48;99676.28;;;3.25;100.00
77112;BME280;66064;50.226;14.344;2024-03-06T03:46:15;99679.88;;;3.27;100.00
77112;BME280;66064;50.226;14.344;2024-03-06T03:48:41;99687.34;;;3.37;100.00
77112;BME280;66064;50.226;14.344;2024-03-06T03:51:07;99674.75;;;3.30;100.00
77112;BME280;66064;50.226;14.344;2024-03-06T03:53:34;99680.28;;;3.36;100.00
77112;BME280;66064;50.226;14.344;2024-03-06T03:56:01;99690.25;;;3.45;100.00
77112;BME280;66064;50.226;14.344;2024-03-06T03:58:28;99684.09;;;3.44;100.00
77112;BME280;66064;50.226;14.344;2024-03-06T04:00:55;99703.03;;;3.57;100.00
77112;BME280;66064;50.226;14.344;2024-03-06T04:03:22;99680.00;;;3.51;100.00
77112;BME280;66064;50.226;14.344;2024-03-06T04:05:48;99695.13;;;3.57;100.00
77112;BME280;66064;50.226;14.344;2024-03-06T04:08:14;99694.59;;;3.65;100.00
77112;BME280;66064;50.226;14.344;2024-03-06T04:10:43;99693.69;;;3.65;100.00
77112;BME280;66064;50.226;14.344;2024-03-06T04:13:14;99695.63;;;3.69;100.00
77112;BME280;66064;50.226;14.344;2024-03-06T04:15:42;99708.44;;;3.61;100.00
77112;BME280;66064;50.226;14.344;2024-03-06T04:18:07;99704.34;;;3.68;100.00
77112;BME280;66064;50.226;14.344;2024-03-06T04:20:33;99708.72;;;3.67;100.00
77112;BME280;66064;50.226;14.344;2024-03-06T04:22:59;99697.28;;;3.67;100.00
77112;BME280;66064;50.226;14.344;2024-03-06T04:25:26;99708.06;;;3.73;100.00
77112;BME280;66064;50.226;14.344;2024-03-06T04:27:52;99687.28;;;3.58;100.00
77112;BME280;66064;50.226;14.344;2024-03-06T04:30:18;99708.00;;;3.71;100.00
77112;BME280;66064;50.226;14.344;2024-03-06T04:32:44;99695.47;;;3.66;100.00
77112;BME280;66064;50.226;14.344;2024-03-06T04:35:10;99697.16;;;3.64;100.00
77112;BME280;66064;50.226;14.344;2024-03-06T04:37:36;99682.91;;;3.59;100.00
77112;BME280;66064;50.226;14.344;2024-03-06T04:40:04;99711.28;;;3.66;100.00
77112;BME280;66064;50.226;14.344;2024-03-06T04:42:34;99712.25;;;3.68;100.00
77112;BME280;66064;50.226;14.344;2024-03-06T04:45:14;99708.91;;;3.72;100.00
77112;BME280;66064;50.226;14.344;2024-03-06T04:47:40;99717.00;;;3.78;100.00
77112;BME280;66064;50.226;14.344;2024-03-06T04:50:10;99712.72;;;3.80;100.00
77112;BME280;66064;50.226;14.344;2024-03-06T04:52:37;99712.72;;;3.80;100.00
77112;BME280;66064;50.226;14.344;2024-03-06T04:55:06;99713.88;;;3.86;100.00
77112;BME280;66064;50.226;14.344;2024-03-06T04:57:34;99715.59;;;3.86;100.00
77112;BME280;66064;50.226;14.344;2024-03-06T05:00:02;99719.28;;;3.91;100.00
77112;BME280;66064;50.226;14.344;2024-03-06T05:02:34;99710.41;;;3.88;100.00
77112;BME280;66064;50.226;14.344;2024-03-06T05:05:02;99718.38;;;3.91;100.00
77112;BME280;66064;50.226;14.344;2024-03-06T05:07:28;99711.63;;;3.97;100.00
77112;BME280;66064;50.226;14.344;2024-03-06T05:09:58;99716.06;;;3.98;100.00
77112;BME280;66064;50.226;14.344;2024-03-06T05:12:25;99709.66;;;3.92;100.00
77112;BME280;66064;50.226;14.344;2024-03-06T05:14:53;99714.28;;;3.97;100.00
77112;BME280;66064;50.226;14.344;2024-03-06T05:17:19;99721.59;;;4.04;100.00
77112;BME280;66064;50.226;14.344;2024-03-06T05:19:46;99725.94;;;4.04;100.00
77112;BME280;66064;50.226;14.344;2024-03-06T05:22:17;99719.53;;;3.97;100.00
77112;BME280;66064;50.226;14.344;2024-03-06T05:24:44;99733.16;;;4.09;100.00
77112;BME280;66064;50.226;14.344;2024-03-06T05:27:10;99735.81;;;4.09;100.00
77112;BME280;66064;50.226;14.344;2024-03-06T05:29:43;99731.16;;;4.02;100.00
77112;BME280;66064;50.226;14.344;2024-03-06T05:32:10;99744.31;;;4.02;100.00
77112;BME280;66064;50.226;14.344;2024-03-06T05:34:37;99739.19;;;4.05;100.00
77112;BME280;66064;50.226;14.344;2024-03-06T05:37:03;99739.28;;;4.08;100.00
77112;BME280;66064;50.226;14.344;2024-03-06T05:39:31;99734.50;;;3.98;100.00
77112;BME280;66064;50.226;14.344;2024-03-06T05:42:01;99756.94;;;4.11;100.00
77112;BME280;66064;50.226;14.344;2024-03-06T05:44:31;99750.75;;;4.10;100.00
77112;BME280;66064;50.226;14.344;2024-03-06T05:47:01;99755.66;;;4.23;100.00
77112;BME280;66064;50.226;14.344;2024-03-06T05:49:34;99756.56;;;4.24;100.00
77112;BME280;66064;50.226;14.344;2024-03-06T05:52:00;99745.94;;;4.21;100.00
77112;BME280;66064;50.226;14.344;2024-03-06T05:54:26;99759.38;;;4.29;100.00
77112;BME280;66064;50.226;14.344;2024-03-06T05:56:53;99757.63;;;4.29;100.00
77112;BME280;66064;50.226;14.344;2024-03-06T05:59:20;99755.91;;;4.30;100.00
77112;BME280;66064;50.226;14.344;2024-03-06T06:01:46;99769.25;;;4.34;100.00
77112;BME280;66064;50.226;14.344;2024-03-06T06:04:13;99759.63;;;4.35;100.00
77112;BME280;66064;50.226;14.344;2024-03-06T06:06:40;99766.91;;;4.42;100.00
77112;BME280;66064;50.226;14.344;2024-03-06T06:09:06;99772.16;;;4.42;100.00
77112;BME280;66064;50.226;14.344;2024-03-06T06:11:33;99780.44;;;4.51;100.00
77112;BME280;66064;50.226;14.344;2024-03-06T06:14:00;99784.97;;;4.55;100.00
77112;BME280;66064;50.226;14.344;2024-03-06T06:16:26;99784.31;;;4.61;100.00
77112;BME280;66064;50.226;14.344;2024-03-06T06:18:52;99789.69;;;4.64;100.00
77112;BME280;66064;50.226;14.344;2024-03-06T06:21:18;99787.00;;;4.62;100.00
77112;BME280;66064;50.226;14.344;2024-03-06T06:23:44;99779.22;;;4.65;100.00
77112;BME280;66064;50.226;14.344;2024-03-06T06:26:11;99792.72;;;4.74;100.00
77112;BME280;66064;50.226;14.344;2024-03-06T06:28:37;99788.97;;;4.91;100.00
77112;BME280;66064;50.226;14.344;2024-03-06T06:31:04;99784.63;;;4.93;100.00
77112;BME280;66064;50.226;14.344;2024-03-06T06:33:30;99797.31;;;5.04;100.00
77112;BME280;66064;50.226;14.344;2024-03-06T06:35:56;99796.47;;;5.05;100.00
77112;BME280;66064;50.226;14.344;2024-03-06T06:38:22;99794.97;;;5.11;100.00
77112;BME280;66064;50.226;14.344;2024-03-06T06:40:48;99794.47;;;5.23;100.00
77112;BME280;66064;50.226;14.344;2024-03-06T06:43:14;99796.91;;;5.42;100.00
77112;BME280;66064;50.226;14.344;2024-03-06T06:45:41;99803.44;;;5.53;100.00
77112;BME280;66064;50.226;14.344;2024-03-06T06:48:08;99801.03;;;5.59;100.00
77112;BME280;66064;50.226;14.344;2024-03-06T06:50:35;99804.19;;;5.75;100.00
77112;BME280;66064;50.226;14.344;2024-03-06T06:53:02;99817.44;;;5.76;100.00
77112;BME280;66064;50.226;14.344;2024-03-06T06:55:28;99820.03;;;5.75;100.00
77112;BME280;66064;50.226;14.344;2024-03-06T06:57:54;99810.69;;;5.86;100.00
77112;BME280;66064;50.226;14.344;2024-03-06T07:00:21;99814.75;;;6.00;100.00
77112;BME280;66064;50.226;14.344;2024-03-06T07:02:49;99810.75;;;6.13;100.00
77112;BME280;66064;50.226;14.344;2024-03-06T07:05:15;99821.00;;;6.30;100.00
77112;BME280;66064;50.226;14.344;2024-03-06T07:07:41;99821.38;;;6.43;100.00
77112;BME280;66064;50.226;14.344;2024-03-06T07:10:08;99829.03;;;6.62;100.00
77112;BME280;66064;50.226;14.344;2024-03-06T07:12:35;99817.66;;;6.64;99.98
77112;BME280;66064;50.226;14.344;2024-03-06T07:15:01;99826.59;;;6.70;98.29
77112;BME280;66064;50.226;14.344;2024-03-06T07:17:28;99819.78;;;6.78;97.19
77112;BME280;66064;50.226;14.344;2024-03-06T07:19:54;99824.59;;;6.91;96.08
77112;BME280;66064;50.226;14.344;2024-03-06T07:22:20;99823.47;;;7.13;95.20
77112;BME280;66064;50.226;14.344;2024-03-06T07:24:46;99828.50;;;7.36;94.99
77112;BME280;66064;50.226;14.344;2024-03-06T07:27:12;99821.75;;;7.48;94.61
77112;BME280;66064;50.226;14.344;2024-03-06T07:29:38;99810.44;;;7.53;94.82
77112;BME280;66064;50.226;14.344;2024-03-06T07:32:04;99826.97;;;7.78;94.70
77112;BME280;66064;50.226;14.344;2024-03-06T07:34:33;99832.41;;;7.84;93.75
77112;BME280;66064;50.226;14.344;2024-03-06T07:36:59;99835.09;;;7.85;92.39
77112;BME280;66064;50.226;14.344;2024-03-06T07:39:25;99828.25;;;7.93;92.05
77112;BME280;66064;50.226;14.344;2024-03-06T07:41:52;99838.72;;;7.89;90.42
77112;BME280;66064;50.226;14.344;2024-03-06T07:44:18;99832.19;;;7.75;92.63
77112;BME280;66064;50.226;14.344;2024-03-06T07:46:44;99845.19;;;8.00;92.87
77112;BME280;66064;50.226;14.344;2024-03-06T07:49:09;99830.94;;;7.95;92.06
77112;BME280;66064;50.226;14.344;2024-03-06T07:51:35;99828.50;;;8.04;91.05
77112;BME280;66064;50.226;14.344;2024-03-06T07:54:02;99849.16;;;8.17;90.15
77112;BME280;66064;50.226;14.344;2024-03-06T07:56:29;99837.53;;;8.12;91.07
77112;BME280;66064;50.226;14.344;2024-03-06T07:58:55;99850.78;;;8.11;90.19
77112;BME280;66064;50.226;14.344;2024-03-06T08:01:22;99839.28;;;8.10;89.65
77112;BME280;66064;50.226;14.344;2024-03-06T08:03:48;99852.47;;;8.08;88.12
77112;BME280;66064;50.226;14.344;2024-03-06T08:06:13;99843.03;;;8.20;88.38
77112;BME280;66064;50.226;14.344;2024-03-06T08:08:43;99842.00;;;8.15;87.33
77112;BME280;66064;50.226;14.344;2024-03-06T08:11:13;99861.25;;;8.40;85.51
77112;BME280;66064;50.226;14.344;2024-03-06T08:13:39;99847.19;;;8.45;84.27
77112;BME280;66064;50.226;14.344;2024-03-06T08:16:06;99844.75;;;8.54;83.64
77112;BME280;66064;50.226;14.344;2024-03-06T08:18:33;99859.03;;;8.59;83.39
77112;BME280;66064;50.226;14.344;2024-03-06T08:20:59;99832.72;;;9.11;84.34
77112;BME280;66064;50.226;14.344;2024-03-06T08:23:25;99854.59;;;9.43;81.60
77112;BME280;66064;50.226;14.344;2024-03-06T08:25:51;99853.31;;;9.68;78.06
77112;BME280;66064;50.226;14.344;2024-03-06T08:28:18;99845.06;;;10.03;77.93
77112;BME280;66064;50.226;14.344;2024-03-06T08:30:44;99857.97;;;10.31;77.81
77112;BME280;66064;50.226;14.344;2024-03-06T08:33:11;99855.97;;;10.75;76.96
77112;BME280;66064;50.226;14.344;2024-03-06T08:35:37;99844.47;;;10.76;74.55
77112;BME280;66064;50.226;14.344;2024-03-06T08:38:03;99856.28;;;10.35;74.90
77112;BME280;66064;50.226;14.344;2024-03-06T08:40:29;99846.84;;;10.57;74.66
77112;BME280;66064;50.226;14.344;2024-03-06T08:42:55;99863.69;;;10.54;74.43
77112;BME280;66064;50.226;14.344;2024-03-06T08:45:22;99853.94;;;10.58;72.94
77112;BME280;66064;50.226;14.344;2024-03-06T08:47:50;99855.31;;;10.31;74.19
77112;BME280;66064;50.226;14.344;2024-03-06T08:50:17;99858.00;;;10.93;72.92
77112;BME280;66064;50.226;14.344;2024-03-06T08:52:43;99855.88;;;12.16;71.36
77112;BME280;66064;50.226;14.344;2024-03-06T08:55:09;99826.34;;;13.42;65.19
77112;BME280;66064;50.226;14.344;2024-03-06T08:57:36;99828.19;;;13.70;62.46
77112;BME280;66064;50.226;14.344;2024-03-06T09:00:03;99823.94;;;16.18;57.76
77112;BME280;66064;50.226;14.344;2024-03-06T09:02:29;99827.25;;;17.97;51.92
77112;BME280;66064;50.226;14.344;2024-03-06T09:04:56;99820.78;;;19.92;47.75
77112;BME280;66064;50.226;14.344;2024-03-06T09:07:22;99817.38;;;19.42;46.77
77112;BME280;66064;50.226;14.344;2024-03-06T09:09:52;99819.94;;;18.56;48.00
77112;BME280;66064;50.226;14.344;2024-03-06T09:12:18;99838.06;;;18.49;48.73
77112;BME280;66064;50.226;14.344;2024-03-06T09:14:44;99829.34;;;18.34;49.12
77112;BME280;66064;50.226;14.344;2024-03-06T09:17:11;99839.75;;;18.01;49.84
77112;BME280;66064;50.226;14.344;2024-03-06T09:19:40;99837.84;;;17.42;51.87
77112;BME280;66064;50.226;14.344;2024-03-06T09:22:07;99845.44;;;17.81;50.59
77112;BME280;66064;50.226;14.344;2024-03-06T09:24:33;99840.41;;;18.17;50.38
77112;BME280;66064;50.226;14.344;2024-03-06T09:27:00;99826.53;;;20.15;44.94
77112;BME280;66064;50.226;14.344;2024-03-06T09:29:27;99840.31;;;21.42;43.57
77112;BME280;66064;50.226;14.344;2024-03-06T09:31:52;99830.63;;;20.67;41.07
77112;BME280;66064;50.226;14.344;2024-03-06T09:34:18;99832.91;;;20.50;42.41
77112;BME280;66064;50.226;14.344;2024-03-06T09:36:49;99842.19;;;19.63;45.28
77112;BME280;66064;50.226;14.344;2024-03-06T09:39:16;99838.88;;;19.47;45.64
77112;BME280;66064;50.226;14.344;2024-03-06T09:41:44;99838.09;;;18.46;47.55
77112;BME280;66064;50.226;14.344;2024-03-06T09:44:10;99835.25;;;18.54;47.80
77112;BME280;66064;50.226;14.344;2024-03-06T09:46:36;99835.72;;;18.82;46.25
77112;BME280;66064;50.226;14.344;2024-03-06T09:49:02;99834.16;;;18.67;47.42
77112;BME280;66064;50.226;14.344;2024-03-06T09:51:28;99846.81;;;17.44;48.17
77112;BME280;66064;50.226;14.344;2024-03-06T09:53:56;99848.00;;;17.89;48.88
77112;BME280;66064;50.226;14.344;2024-03-06T09:56:22;99859.34;;;17.46;50.04
77112;BME280;66064;50.226;14.344;2024-03-06T09:58:48;99847.31;;;17.03;51.80
77112;BME280;66064;50.226;14.344;2024-03-06T10:01:14;99848.97;;;17.13;51.55
77112;BME280;66064;50.226;14.344;2024-03-06T10:03:40;99847.34;;;17.01;50.66
77112;BME280;66064;50.226;14.344;2024-03-06T10:06:07;99848.34;;;18.25;48.94
77112;BME280;66064;50.226;14.344;2024-03-06T10:08:33;99830.13;;;20.87;43.07
77112;BME280;66064;50.226;14.344;2024-03-06T10:11:00;99836.53;;;22.07;41.51
77112;BME280;66064;50.226;14.344;2024-03-06T10:13:26;99836.31;;;22.93;39.20
77112;BME280;66064;50.226;14.344;2024-03-06T10:16:00;99823.78;;;22.89;38.10
77112;BME280;66064;50.226;14.344;2024-03-06T10:18:28;99842.34;;;23.75;35.84
77112;BME280;66064;50.226;14.344;2024-03-06T10:20:55;99835.56;;;23.38;36.06
77112;BME280;66064;50.226;14.344;2024-03-06T10:23:20;99825.31;;;23.93;36.12
77112;BME280;66064;50.226;14.344;2024-03-06T10:25:48;99833.56;;;23.43;36.67
77112;BME280;66064;50.226;14.344;2024-03-06T10:28:21;99830.78;;;24.58;33.60
77112;BME280;66064;50.226;14.344;2024-03-06T10:30:50;99835.22;;;25.23;34.13
77112;BME280;66064;50.226;14.344;2024-03-06T10:33:17;99832.34;;;25.47;33.91
77112;BME280;66064;50.226;14.344;2024-03-06T10:35:47;99824.31;;;25.43;33.57
77112;BME280;66064;50.226;14.344;2024-03-06T10:38:14;99830.28;;;24.91;33.62
77112;BME280;66064;50.226;14.344;2024-03-06T10:40:42;99832.78;;;22.39;37.24
77112;BME280;66064;50.226;14.344;2024-03-06T10:43:09;99836.03;;;21.34;38.18
77112;BME280;66064;50.226;14.344;2024-03-06T10:45:50;99840.94;;;20.14;39.60
77112;BME280;66064;50.226;14.344;2024-03-06T10:48:18;99838.53;;;21.09;40.35
77112;BME280;66064;50.226;14.344;2024-03-06T10:50:46;99835.34;;;22.15;39.04
77112;BME280;66064;50.226;14.344;2024-03-06T10:53:14;99822.19;;;21.12;40.51
77112;BME280;66064;50.226;14.344;2024-03-06T10:55:42;99837.94;;;19.49;43.70
77112;BME280;66064;50.226;14.344;2024-03-06T10:58:11;99837.06;;;19.89;41.45
77112;BME280;66064;50.226;14.344;2024-03-06T11:00:43;99842.44;;;19.04;44.11
77112;BME280;66064;50.226;14.344;2024-03-06T11:03:11;99841.84;;;18.36;44.54
77112;BME280;66064;50.226;14.344;2024-03-06T11:05:41;99842.09;;;17.61;46.65
77112;BME280;66064;50.226;14.344;2024-03-06T11:08:12;99840.88;;;17.16;46.96
77112;BME280;66064;50.226;14.344;2024-03-06T11:10:41;99847.75;;;15.12;49.60
77112;BME280;66064;50.226;14.344;2024-03-06T11:13:25;99855.03;;;14.55;55.80
77112;BME280;66064;50.226;14.344;2024-03-06T11:15:57;99849.69;;;14.58;52.38
77112;BME280;66064;50.226;14.344;2024-03-06T11:23:25;99838.91;;;13.70;56.71
77112;BME280;66064;50.226;14.344;2024-03-06T11:31:01;99847.84;;;13.78;57.02
77112;BME280;66064;50.226;14.344;2024-03-06T11:33:41;99844.00;;;13.08;57.58
77112;BME280;66064;50.226;14.344;2024-03-06T11:39:10;99841.97;;;12.63;58.67
77112;BME280;66064;50.226;14.344;2024-03-06T11:44:18;99830.00;;;13.74;55.60
77112;BME280;66064;50.226;14.344;2024-03-06T11:46:47;99812.78;;;16.60;50.44
77112;BME280;66064;50.226;14.344;2024-03-06T11:49:20;99814.16;;;18.30;46.94
77112;BME280;66064;50.226;14.344;2024-03-06T11:51:51;99814.97;;;20.10;42.85
77112;BME280;66064;50.226;14.344;2024-03-06T11:54:17;99810.41;;;21.45;38.76
77112;BME280;66064;50.226;14.344;2024-03-06T11:56:51;99796.38;;;21.33;38.14
77112;BME280;66064;50.226;14.344;2024-03-06T11:59:27;99796.28;;;21.93;37.88
77112;BME280;66064;50.226;14.344;2024-03-06T12:02:02;99807.53;;;22.37;36.70
77112;BME280;66064;50.226;14.344;2024-03-06T12:04:31;99793.88;;;22.91;34.67
77112;BME280;66064;50.226;14.344;2024-03-06T12:07:00;99797.69;;;22.59;35.32
77112;BME280;66064;50.226;14.344;2024-03-06T12:09:35;99781.38;;;22.87;34.20
77112;BME280;66064;50.226;14.344;2024-03-06T12:12:01;99777.25;;;23.71;33.70
77112;BME280;66064;50.226;14.344;2024-03-06T12:14:29;99784.53;;;22.99;32.52
77112;BME280;66064;50.226;14.344;2024-03-06T12:19:22;99801.81;;;18.16;42.49
77112;BME280;66064;50.226;14.344;2024-03-06T12:21:48;99794.06;;;17.32;45.18
77112;BME280;66064;50.226;14.344;2024-03-06T12:24:16;99807.09;;;16.91;45.66
77112;BME280;66064;50.226;14.344;2024-03-06T12:26:44;99806.94;;;16.17;45.82
77112;BME280;66064;50.226;14.344;2024-03-06T12:29:11;99804.75;;;15.36;48.71
77112;BME280;66064;50.226;14.344;2024-03-06T12:31:38;99803.72;;;15.63;47.92
77112;BME280;66064;50.226;14.344;2024-03-06T12:34:08;99788.00;;;17.81;45.22
77112;BME280;66064;50.226;14.344;2024-03-06T12:36:35;99771.84;;;20.75;38.01
77112;BME280;66064;50.226;14.344;2024-03-06T12:39:03;99756.28;;;21.14;35.81
77112;BME280;66064;50.226;14.344;2024-03-06T12:41:29;99767.28;;;19.71;38.07
77112;BME280;66064;50.226;14.344;2024-03-06T12:43:56;99763.84;;;20.01;38.49
77112;BME280;66064;50.226;14.344;2024-03-06T12:46:23;99778.81;;;17.94;41.36
77112;BME280;66064;50.226;14.344;2024-03-06T12:48:50;99773.38;;;16.59;42.63
77112;BME280;66064;50.226;14.344;2024-03-06T12:51:16;99793.03;;;15.54;45.50
77112;BME280;66064;50.226;14.344;2024-03-06T12:53:43;99788.88;;;14.85;47.19
77112;BME280;66064;50.226;14.344;2024-03-06T12:56:10;99795.25;;;14.21;48.62
77112;BME280;66064;50.226;14.344;2024-03-06T12:58:37;99780.06;;;14.17;49.12
77112;BME280;66064;50.226;14.344;2024-03-06T13:01:03;99799.69;;;13.90;49.78
77112;BME280;66064;50.226;14.344;2024-03-06T13:03:31;99797.03;;;13.77;51.36
77112;BME280;66064;50.226;14.344;2024-03-06T13:05:57;99796.09;;;13.47;52.48
77112;BME280;66064;50.226;14.344;2024-03-06T13:08:24;99791.63;;;13.45;53.87